Terminal Aerodrome Forecast
Issued by NWS Binghamton, NY

Home | Current Version | Previous Version | Text Only | Print | Product List | Glossary On
Versions: 1 2 3 4 5 6 7 8 9 10 11 12 13 14 15 16 17 18
000
FTUS41 KBGM 191432 AAA
TAFSYR
TAF AMD
KSYR 191432Z 1915/2012 29015G24KT 5SM -RA BR OVC015
      TEMPO 1917/1921 1 1/2SM -SHSN BR
     FM192200 28016G26KT 2SM -SN BLSN OVC018
     FM200100 28013G18KT 1SM -SN BLSN OVC015=

USA.gov is the U.S. government's official web portal to all federal, state and local government web resources and services.